sensor_id;sensor_type;location;lat;lon;timestamp;temperature;humidity
56869;DHT22;42754;0.000;0.000;2023-03-05T00:02:18;4.40;99.90
56869;DHT22;42754;0.000;0.000;2023-03-05T00:04:43;4.40;99.90
56869;DHT22;42754;0.000;0.000;2023-03-05T00:07:10;4.40;99.90
56869;DHT22;42754;0.000;0.000;2023-03-05T00:09:38;4.40;99.90
56869;DHT22;42754;0.000;0.000;2023-03-05T00:12:05;4.40;99.90
56869;DHT22;42754;0.000;0.000;2023-03-05T00:14:31;4.40;99.90
56869;DHT22;42754;0.000;0.000;2023-03-05T00:16:58;4.40;99.90
56869;DHT22;42754;0.000;0.000;2023-03-05T00:19:24;4.40;99.90
56869;DHT22;42754;0.000;0.000;2023-03-05T00:21:49;4.40;99.90
56869;DHT22;42754;0.000;0.000;2023-03-05T00:24:16;4.30;99.90
56869;DHT22;42754;0.000;0.000;2023-03-05T00:26:42;4.30;99.90
56869;DHT22;42754;0.000;0.000;2023-03-05T00:29:10;4.30;99.90
56869;DHT22;42754;0.000;0.000;2023-03-05T00:34:06;4.30;99.90
56869;DHT22;42754;0.000;0.000;2023-03-05T00:36:32;4.30;99.90
56869;DHT22;42754;0.000;0.000;2023-03-05T00:38:58;4.30;99.90
56869;DHT22;42754;0.000;0.000;2023-03-05T00:41:28;4.30;99.90
56869;DHT22;42754;0.000;0.000;2023-03-05T00:43:53;4.30;99.90
56869;DHT22;42754;0.000;0.000;2023-03-05T00:46:19;4.30;99.90
56869;DHT22;42754;0.000;0.000;2023-03-05T00:48:44;4.30;99.90
56869;DHT22;42754;0.000;0.000;2023-03-05T00:51:12;4.30;99.90
56869;DHT22;42754;0.000;0.000;2023-03-05T00:53:38;4.30;99.90
56869;DHT22;42754;0.000;0.000;2023-03-05T00:56:05;4.30;99.90
56869;DHT22;42754;0.000;0.000;2023-03-05T00:58:31;4.30;99.90
56869;DHT22;42754;0.000;0.000;2023-03-05T01:03:27;4.30;99.90
56869;DHT22;42754;0.000;0.000;2023-03-05T01:05:53;4.30;99.90
56869;DHT22;42754;0.000;0.000;2023-03-05T01:08:18;4.30;99.90
56869;DHT22;42754;0.000;0.000;2023-03-05T01:10:44;4.30;99.90
56869;DHT22;42754;0.000;0.000;2023-03-05T01:13:10;4.30;99.90
56869;DHT22;42754;0.000;0.000;2023-03-05T01:15:35;4.30;99.90
56869;DHT22;42754;0.000;0.000;2023-03-05T01:18:03;4.30;99.90
56869;DHT22;42754;0.000;0.000;2023-03-05T01:20:28;4.20;99.90
56869;DHT22;42754;0.000;0.000;2023-03-05T01:22:54;4.30;99.90
56869;DHT22;42754;0.000;0.000;2023-03-05T01:25:19;4.20;99.90
56869;DHT22;42754;0.000;0.000;2023-03-05T01:27:45;4.20;99.90
56869;DHT22;42754;0.000;0.000;2023-03-05T01:30:11;4.20;99.90
56869;DHT22;42754;0.000;0.000;2023-03-05T01:32:37;4.20;99.90
56869;DHT22;42754;0.000;0.000;2023-03-05T01:35:03;4.20;99.90
56869;DHT22;42754;0.000;0.000;2023-03-05T01:37:29;4.20;99.90
56869;DHT22;42754;0.000;0.000;2023-03-05T01:39:55;4.20;99.90
56869;DHT22;42754;0.000;0.000;2023-03-05T01:42:21;4.10;99.90
56869;DHT22;42754;0.000;0.000;2023-03-05T01:47:28;4.10;99.90
56869;DHT22;42754;0.000;0.000;2023-03-05T01:49:53;4.10;99.90
56869;DHT22;42754;0.000;0.000;2023-03-05T01:52:26;4.10;99.90
56869;DHT22;42754;0.000;0.000;2023-03-05T01:54:54;4.10;99.90
56869;DHT22;42754;0.000;0.000;2023-03-05T01:57:25;4.10;99.90
56869;DHT22;42754;0.000;0.000;2023-03-05T01:59:52;4.10;99.90
56869;DHT22;42754;0.000;0.000;2023-03-05T02:02:22;4.00;99.90
56869;DHT22;42754;0.000;0.000;2023-03-05T02:04:51;4.00;99.90
56869;DHT22;42754;0.000;0.000;2023-03-05T02:07:19;4.00;99.90
56869;DHT22;42754;0.000;0.000;2023-03-05T02:09:46;4.00;99.90
56869;DHT22;42754;0.000;0.000;2023-03-05T02:12:12;4.10;99.90
56869;DHT22;42754;0.000;0.000;2023-03-05T02:14:50;4.10;99.90
56869;DHT22;42754;0.000;0.000;2023-03-05T02:17:25;4.10;99.90
56869;DHT22;42754;0.000;0.000;2023-03-05T02:19:52;4.10;99.90
56869;DHT22;42754;0.000;0.000;2023-03-05T02:22:18;4.10;99.90
56869;DHT22;42754;0.000;0.000;2023-03-05T02:24:47;4.10;99.90
56869;DHT22;42754;0.000;0.000;2023-03-05T02:27:13;4.10;99.90
56869;DHT22;42754;0.000;0.000;2023-03-05T02:29:44;4.10;99.90
56869;DHT22;42754;0.000;0.000;2023-03-05T02:32:10;4.10;99.90
56869;DHT22;42754;0.000;0.000;2023-03-05T02:34:36;4.10;99.90
56869;DHT22;42754;0.000;0.000;2023-03-05T02:37:02;4.10;99.90
56869;DHT22;42754;0.000;0.000;2023-03-05T02:39:31;4.10;99.90
56869;DHT22;42754;0.000;0.000;2023-03-05T02:41:57;4.10;99.90
56869;DHT22;42754;0.000;0.000;2023-03-05T02:44:23;4.00;99.90
56869;DHT22;42754;0.000;0.000;2023-03-05T02:46:48;4.00;99.90
56869;DHT22;42754;0.000;0.000;2023-03-05T02:49:14;4.10;99.90
56869;DHT22;42754;0.000;0.000;2023-03-05T02:51:39;4.00;99.90
56869;DHT22;42754;0.000;0.000;2023-03-05T02:54:11;4.00;99.90
56869;DHT22;42754;0.000;0.000;2023-03-05T02:56:36;4.10;99.90
56869;DHT22;42754;0.000;0.000;2023-03-05T02:59:05;4.00;99.90
56869;DHT22;42754;0.000;0.000;2023-03-05T03:01:30;4.10;99.90
56869;DHT22;42754;0.000;0.000;2023-03-05T03:04:02;4.10;99.90
56869;DHT22;42754;0.000;0.000;2023-03-05T03:06:27;4.00;99.90
56869;DHT22;42754;0.000;0.000;2023-03-05T03:08:59;4.00;99.90
56869;DHT22;42754;0.000;0.000;2023-03-05T03:11:25;4.00;99.90
56869;DHT22;42754;0.000;0.000;2023-03-05T03:14:00;4.00;99.90
56869;DHT22;42754;0.000;0.000;2023-03-05T03:16:26;4.00;99.90
56869;DHT22;42754;0.000;0.000;2023-03-05T03:18:53;4.00;99.90
56869;DHT22;42754;0.000;0.000;2023-03-05T03:21:20;4.00;99.90
56869;DHT22;42754;0.000;0.000;2023-03-05T03:23:46;4.00;99.90
56869;DHT22;42754;0.000;0.000;2023-03-05T03:26:11;4.00;99.90
56869;DHT22;42754;0.000;0.000;2023-03-05T03:28:38;3.90;99.90
56869;DHT22;42754;0.000;0.000;2023-03-05T03:31:03;3.90;99.90
56869;DHT22;42754;0.000;0.000;2023-03-05T03:33:30;4.00;99.90
56869;DHT22;42754;0.000;0.000;2023-03-05T03:35:55;3.90;99.90
56869;DHT22;42754;0.000;0.000;2023-03-05T03:38:29;4.00;99.90
56869;DHT22;42754;0.000;0.000;2023-03-05T03:40:54;3.90;99.90
56869;DHT22;42754;0.000;0.000;2023-03-05T03:43:27;3.90;99.90
56869;DHT22;42754;0.000;0.000;2023-03-05T03:45:54;3.90;99.90
56869;DHT22;42754;0.000;0.000;2023-03-05T03:48:23;3.90;99.90
56869;DHT22;42754;0.000;0.000;2023-03-05T03:50:48;3.90;99.90
56869;DHT22;42754;0.000;0.000;2023-03-05T03:53:16;3.90;99.90
56869;DHT22;42754;0.000;0.000;2023-03-05T03:55:41;3.90;99.90
56869;DHT22;42754;0.000;0.000;2023-03-05T03:58:08;3.90;99.90
56869;DHT22;42754;0.000;0.000;2023-03-05T04:00:33;4.00;99.90
56869;DHT22;42754;0.000;0.000;2023-03-05T04:02:59;3.90;99.90
56869;DHT22;42754;0.000;0.000;2023-03-05T04:05:24;4.00;99.90
56869;DHT22;42754;0.000;0.000;2023-03-05T04:07:50;3.90;99.90
56869;DHT22;42754;0.000;0.000;2023-03-05T04:10:16;3.90;99.90
56869;DHT22;42754;0.000;0.000;2023-03-05T04:12:42;3.90;99.90
56869;DHT22;42754;0.000;0.000;2023-03-05T04:15:11;3.90;99.90
56869;DHT22;42754;0.000;0.000;2023-03-05T04:17:36;3.90;99.90
56869;DHT22;42754;0.000;0.000;2023-03-05T04:20:06;3.90;99.90
56869;DHT22;42754;0.000;0.000;2023-03-05T04:22:34;3.90;99.90
56869;DHT22;42754;0.000;0.000;2023-03-05T04:25:14;3.90;99.90
56869;DHT22;42754;0.000;0.000;2023-03-05T04:27:40;3.90;99.90
56869;DHT22;42754;0.000;0.000;2023-03-05T04:30:08;3.90;99.90
56869;DHT22;42754;0.000;0.000;2023-03-05T04:32:33;3.80;99.90
56869;DHT22;42754;0.000;0.000;2023-03-05T04:35:11;3.90;99.90
56869;DHT22;42754;0.000;0.000;2023-03-05T04:37:37;3.80;99.90
56869;DHT22;42754;0.000;0.000;2023-03-05T04:40:02;3.80;99.90
56869;DHT22;42754;0.000;0.000;2023-03-05T04:42:29;3.80;99.90
56869;DHT22;42754;0.000;0.000;2023-03-05T04:45:05;3.80;99.90
56869;DHT22;42754;0.000;0.000;2023-03-05T04:47:32;3.80;99.90
56869;DHT22;42754;0.000;0.000;2023-03-05T04:49:57;3.80;99.90
56869;DHT22;42754;0.000;0.000;2023-03-05T04:52:23;3.90;99.90
56869;DHT22;42754;0.000;0.000;2023-03-05T04:54:51;3.90;99.90
56869;DHT22;42754;0.000;0.000;2023-03-05T04:57:16;3.90;99.90
56869;DHT22;42754;0.000;0.000;2023-03-05T04:59:43;3.80;99.90
56869;DHT22;42754;0.000;0.000;2023-03-05T05:02:08;3.80;99.90
56869;DHT22;42754;0.000;0.000;2023-03-05T05:04:34;3.80;99.90
56869;DHT22;42754;0.000;0.000;2023-03-05T05:07:03;3.80;99.90
56869;DHT22;42754;0.000;0.000;2023-03-05T05:09:29;3.80;99.90
56869;DHT22;42754;0.000;0.000;2023-03-05T05:11:55;3.80;99.90
56869;DHT22;42754;0.000;0.000;2023-03-05T05:14:20;3.80;99.90
56869;DHT22;42754;0.000;0.000;2023-03-05T05:16:46;3.80;99.90
56869;DHT22;42754;0.000;0.000;2023-03-05T05:19:12;3.80;99.90
56869;DHT22;42754;0.000;0.000;2023-03-05T05:21:37;3.80;99.90
56869;DHT22;42754;0.000;0.000;2023-03-05T05:24:03;3.80;99.90
56869;DHT22;42754;0.000;0.000;2023-03-05T05:26:29;3.80;99.90
56869;DHT22;42754;0.000;0.000;2023-03-05T05:28:54;3.80;99.90
56869;DHT22;42754;0.000;0.000;2023-03-05T05:31:23;3.80;99.90
56869;DHT22;42754;0.000;0.000;2023-03-05T05:33:48;3.80;99.90
56869;DHT22;42754;0.000;0.000;2023-03-05T05:36:16;3.80;99.90
56869;DHT22;42754;0.000;0.000;2023-03-05T05:38:43;3.80;99.90
56869;DHT22;42754;0.000;0.000;2023-03-05T05:43:40;3.80;99.90
56869;DHT22;42754;0.000;0.000;2023-03-05T05:46:07;3.80;99.90
56869;DHT22;42754;0.000;0.000;2023-03-05T05:48:34;3.80;99.90
56869;DHT22;42754;0.000;0.000;2023-03-05T05:51:08;3.80;99.90
56869;DHT22;42754;0.000;0.000;2023-03-05T05:53:34;3.70;99.90
56869;DHT22;42754;0.000;0.000;2023-03-05T05:56:00;3.70;99.90
56869;DHT22;42754;0.000;0.000;2023-03-05T05:58:25;3.70;99.90
56869;DHT22;42754;0.000;0.000;2023-03-05T06:00:51;3.70;99.90
56869;DHT22;42754;0.000;0.000;2023-03-05T06:03:16;3.70;99.90
56869;DHT22;42754;0.000;0.000;2023-03-05T06:05:43;3.70;99.90
56869;DHT22;42754;0.000;0.000;2023-03-05T06:08:09;3.70;99.90
56869;DHT22;42754;0.000;0.000;2023-03-05T06:10:34;3.60;99.90
56869;DHT22;42754;0.000;0.000;2023-03-05T06:13:00;3.60;99.90
56869;DHT22;42754;0.000;0.000;2023-03-05T06:15:26;3.60;99.90
56869;DHT22;42754;0.000;0.000;2023-03-05T06:17:51;3.60;99.90
56869;DHT22;42754;0.000;0.000;2023-03-05T06:20:19;3.60;99.90
56869;DHT22;42754;0.000;0.000;2023-03-05T06:22:44;3.60;99.90
56869;DHT22;42754;0.000;0.000;2023-03-05T06:25:10;3.60;99.90
56869;DHT22;42754;0.000;0.000;2023-03-05T06:27:37;3.60;99.90
56869;DHT22;42754;0.000;0.000;2023-03-05T06:30:04;3.60;99.90
56869;DHT22;42754;0.000;0.000;2023-03-05T06:32:30;3.70;99.90
56869;DHT22;42754;0.000;0.000;2023-03-05T06:34:55;3.70;99.90
56869;DHT22;42754;0.000;0.000;2023-03-05T06:37:21;3.70;99.90
56869;DHT22;42754;0.000;0.000;2023-03-05T06:39:46;3.70;99.90
56869;DHT22;42754;0.000;0.000;2023-03-05T06:42:12;3.70;99.90
56869;DHT22;42754;0.000;0.000;2023-03-05T06:44:38;3.70;99.90
56869;DHT22;42754;0.000;0.000;2023-03-05T06:47:07;3.70;99.90
56869;DHT22;42754;0.000;0.000;2023-03-05T06:49:33;3.80;99.90
56869;DHT22;42754;0.000;0.000;2023-03-05T06:52:00;3.80;99.90
56869;DHT22;42754;0.000;0.000;2023-03-05T06:54:26;3.80;99.90
56869;DHT22;42754;0.000;0.000;2023-03-05T06:56:51;3.80;99.90
56869;DHT22;42754;0.000;0.000;2023-03-05T06:59:17;3.80;99.90
56869;DHT22;42754;0.000;0.000;2023-03-05T07:01:43;3.90;99.90
56869;DHT22;42754;0.000;0.000;2023-03-05T07:04:09;3.90;99.90
56869;DHT22;42754;0.000;0.000;2023-03-05T07:06:35;4.00;99.90
56869;DHT22;42754;0.000;0.000;2023-03-05T07:09:03;4.00;99.90
56869;DHT22;42754;0.000;0.000;2023-03-05T07:11:30;4.00;99.90
56869;DHT22;42754;0.000;0.000;2023-03-05T07:13:56;4.00;99.90
56869;DHT22;42754;0.000;0.000;2023-03-05T07:16:26;4.00;99.90
56869;DHT22;42754;0.000;0.000;2023-03-05T07:18:52;4.10;99.90
56869;DHT22;42754;0.000;0.000;2023-03-05T07:21:23;4.10;99.90
56869;DHT22;42754;0.000;0.000;2023-03-05T07:23:49;4.10;99.90
56869;DHT22;42754;0.000;0.000;2023-03-05T07:26:15;4.10;99.90
56869;DHT22;42754;0.000;0.000;2023-03-05T07:28:41;4.00;99.90
56869;DHT22;42754;0.000;0.000;2023-03-05T07:31:09;4.00;99.90
56869;DHT22;42754;0.000;0.000;2023-03-05T07:33:36;4.00;99.90
56869;DHT22;42754;0.000;0.000;2023-03-05T07:36:02;4.10;99.90
56869;DHT22;42754;0.000;0.000;2023-03-05T07:38:32;4.20;99.90
56869;DHT22;42754;0.000;0.000;2023-03-05T07:41:05;4.20;99.90
56869;DHT22;42754;0.000;0.000;2023-03-05T07:43:31;4.20;99.90
56869;DHT22;42754;0.000;0.000;2023-03-05T07:45:57;4.30;99.90
56869;DHT22;42754;0.000;0.000;2023-03-05T07:48:22;4.40;99.90
56869;DHT22;42754;0.000;0.000;2023-03-05T07:50:58;4.50;99.90
56869;DHT22;42754;0.000;0.000;2023-03-05T07:53:24;4.60;99.90
56869;DHT22;42754;0.000;0.000;2023-03-05T07:58:18;5.00;99.90
56869;DHT22;42754;0.000;0.000;2023-03-05T08:00:52;5.20;99.90
56869;DHT22;42754;0.000;0.000;2023-03-05T08:03:17;5.10;99.90
56869;DHT22;42754;0.000;0.000;2023-03-05T08:05:43;5.00;99.90
56869;DHT22;42754;0.000;0.000;2023-03-05T08:08:09;5.00;99.90
56869;DHT22;42754;0.000;0.000;2023-03-05T08:10:35;5.00;99.90
56869;DHT22;42754;0.000;0.000;2023-03-05T08:13:01;5.20;99.90
56869;DHT22;42754;0.000;0.000;2023-03-05T08:15:26;5.10;99.90
56869;DHT22;42754;0.000;0.000;2023-03-05T08:17:53;5.10;99.90
56869;DHT22;42754;0.000;0.000;2023-03-05T08:20:18;5.10;99.90
56869;DHT22;42754;0.000;0.000;2023-03-05T08:22:44;5.20;99.90
56869;DHT22;42754;0.000;0.000;2023-03-05T08:25:10;5.20;99.90
56869;DHT22;42754;0.000;0.000;2023-03-05T08:27:39;5.20;99.90
56869;DHT22;42754;0.000;0.000;2023-03-05T08:30:06;5.20;99.90
56869;DHT22;42754;0.000;0.000;2023-03-05T08:32:31;5.30;99.90
56869;DHT22;42754;0.000;0.000;2023-03-05T08:34:57;5.30;99.90
56869;DHT22;42754;0.000;0.000;2023-03-05T08:37:23;5.30;99.90
56869;DHT22;42754;0.000;0.000;2023-03-05T08:39:49;5.30;99.90
56869;DHT22;42754;0.000;0.000;2023-03-05T08:42:15;5.20;99.90
56869;DHT22;42754;0.000;0.000;2023-03-05T08:44:40;5.30;99.90
56869;DHT22;42754;0.000;0.000;2023-03-05T08:47:07;5.30;99.90
56869;DHT22;42754;0.000;0.000;2023-03-05T08:49:32;5.40;99.90
56869;DHT22;42754;0.000;0.000;2023-03-05T08:52:00;5.50;99.90
56869;DHT22;42754;0.000;0.000;2023-03-05T08:54:25;5.60;99.90
56869;DHT22;42754;0.000;0.000;2023-03-05T08:56:51;5.60;99.90
56869;DHT22;42754;0.000;0.000;2023-03-05T08:59:16;5.70;99.90
56869;DHT22;42754;0.000;0.000;2023-03-05T09:01:42;5.80;99.90
56869;DHT22;42754;0.000;0.000;2023-03-05T09:04:08;6.10;99.90
56869;DHT22;42754;0.000;0.000;2023-03-05T09:06:34;6.50;99.90
56869;DHT22;42754;0.000;0.000;2023-03-05T09:09:03;6.80;99.90
56869;DHT22;42754;0.000;0.000;2023-03-05T09:11:29;6.60;99.90
56869;DHT22;42754;0.000;0.000;2023-03-05T09:13:54;6.60;99.90
56869;DHT22;42754;0.000;0.000;2023-03-05T09:16:20;6.40;99.90
56869;DHT22;42754;0.000;0.000;2023-03-05T09:18:45;6.50;99.90
56869;DHT22;42754;0.000;0.000;2023-03-05T09:23:45;6.70;99.90
56869;DHT22;42754;0.000;0.000;2023-03-05T09:26:12;6.70;99.90
56869;DHT22;42754;0.000;0.000;2023-03-05T09:28:38;6.70;99.90
56869;DHT22;42754;0.000;0.000;2023-03-05T09:33:35;6.60;99.90
56869;DHT22;42754;0.000;0.000;2023-03-05T09:36:02;6.60;99.90
56869;DHT22;42754;0.000;0.000;2023-03-05T09:38:27;6.60;99.90
56869;DHT22;42754;0.000;0.000;2023-03-05T09:41:06;6.70;99.90
56869;DHT22;42754;0.000;0.000;2023-03-05T09:43:51;6.70;99.90
56869;DHT22;42754;0.000;0.000;2023-03-05T09:48:52;6.90;99.90
56869;DHT22;42754;0.000;0.000;2023-03-05T09:51:25;7.30;99.90
56869;DHT22;42754;0.000;0.000;2023-03-05T09:53:54;7.20;99.90
56869;DHT22;42754;0.000;0.000;2023-03-05T09:56:23;7.30;99.90
56869;DHT22;42754;0.000;0.000;2023-03-05T09:58:54;7.30;99.90
56869;DHT22;42754;0.000;0.000;2023-03-05T10:01:25;7.40;99.90
56869;DHT22;42754;0.000;0.000;2023-03-05T10:03:55;7.20;99.90
56869;DHT22;42754;0.000;0.000;2023-03-05T10:13:50;7.10;99.90
56869;DHT22;42754;0.000;0.000;2023-03-05T10:16:27;7.20;99.90
56869;DHT22;42754;0.000;0.000;2023-03-05T10:21:41;7.40;99.90
56869;DHT22;42754;0.000;0.000;2023-03-05T10:24:11;7.40;99.90
56869;DHT22;42754;0.000;0.000;2023-03-05T10:29:06;7.20;99.90
56869;DHT22;42754;0.000;0.000;2023-03-05T10:31:45;7.10;99.90
56869;DHT22;42754;0.000;0.000;2023-03-05T10:45:20;6.90;99.90
56869;DHT22;42754;0.000;0.000;2023-03-05T10:47:51;6.90;99.90
56869;DHT22;42754;0.000;0.000;2023-03-05T10:52:43;7.00;99.90
56869;DHT22;42754;0.000;0.000;2023-03-05T10:55:12;7.10;99.90
56869;DHT22;42754;0.000;0.000;2023-03-05T10:57:38;7.70;99.90
56869;DHT22;42754;0.000;0.000;2023-03-05T11:02:30;8.80;99.90
56869;DHT22;42754;0.000;0.000;2023-03-05T11:04:55;8.80;99.90
56869;DHT22;42754;0.000;0.000;2023-03-05T11:12:27;8.60;99.90
56869;DHT22;42754;0.000;0.000;2023-03-05T11:17:31;8.10;99.90
56869;DHT22;42754;0.000;0.000;2023-03-05T11:20:44;8.00;99.90
56869;DHT22;42754;0.000;0.000;2023-03-05T11:25:31;7.80;99.90
56869;DHT22;42754;0.000;0.000;2023-03-05T11:27:58;7.60;99.90
56869;DHT22;42754;0.000;0.000;2023-03-05T11:30:28;7.50;99.90
56869;DHT22;42754;0.000;0.000;2023-03-05T11:35:43;7.40;99.90
56869;DHT22;42754;0.000;0.000;2023-03-05T11:38:19;7.20;99.90
56869;DHT22;42754;0.000;0.000;2023-03-05T11:40:46;7.20;99.90
56869;DHT22;42754;0.000;0.000;2023-03-05T11:43:20;7.20;99.90
56869;DHT22;42754;0.000;0.000;2023-03-05T11:45:48;7.30;99.90
56869;DHT22;42754;0.000;0.000;2023-03-05T11:48:19;7.20;99.90
56869;DHT22;42754;0.000;0.000;2023-03-05T11:50:47;7.10;99.90
56869;DHT22;42754;0.000;0.000;2023-03-05T11:53:32;7.00;99.90
56869;DHT22;42754;0.000;0.000;2023-03-05T11:56:04;6.90;99.90
56869;DHT22;42754;0.000;0.000;2023-03-05T11:59:15;6.90;99.90
56869;DHT22;42754;0.000;0.000;2023-03-05T12:01:21;6.60;99.90
56869;DHT22;42754;0.000;0.000;2023-03-05T12:03:48;6.50;99.90
56869;DHT22;42754;0.000;0.000;2023-03-05T12:08:56;6.50;99.90
56869;DHT22;42754;0.000;0.000;2023-03-05T12:11:29;6.30;99.90
56869;DHT22;42754;0.000;0.000;2023-03-05T12:14:00;6.30;99.90
56869;DHT22;42754;0.000;0.000;2023-03-05T12:16:37;6.30;99.90
56869;DHT22;42754;0.000;0.000;2023-03-05T12:21:33;5.90;99.90
56869;DHT22;42754;0.000;0.000;2023-03-05T12:24:02;5.80;99.90
56869;DHT22;42754;0.000;0.000;2023-03-05T12:29:59;5.80;99.90
56869;DHT22;42754;0.000;0.000;2023-03-05T12:31:59;5.60;99.90
56869;DHT22;42754;0.000;0.000;2023-03-05T12:37:04;5.50;99.90
56869;DHT22;42754;0.000;0.000;2023-03-05T12:42:28;5.50;99.90
56869;DHT22;42754;0.000;0.000;2023-03-05T12:45:21;5.50;99.90
56869;DHT22;42754;0.000;0.000;2023-03-05T12:47:41;5.60;99.90
56869;DHT22;42754;0.000;0.000;2023-03-05T12:52:52;5.80;99.90
56869;DHT22;42754;0.000;0.000;2023-03-05T12:57:45;5.90;99.90
56869;DHT22;42754;0.000;0.000;2023-03-05T13:00:24;5.90;99.90
56869;DHT22;42754;0.000;0.000;2023-03-05T13:02:53;6.10;99.90
56869;DHT22;42754;0.000;0.000;2023-03-05T13:05:33;6.20;99.90
56869;DHT22;42754;0.000;0.000;2023-03-05T13:10:50;6.50;99.90
56869;DHT22;42754;0.000;0.000;2023-03-05T13:13:18;6.50;99.90
56869;DHT22;42754;0.000;0.000;2023-03-05T13:15:48;6.70;99.90
56869;DHT22;42754;0.000;0.000;2023-03-05T13:18:18;6.80;99.90
56869;DHT22;42754;0.000;0.000;2023-03-05T13:20:44;7.10;99.90
56869;DHT22;42754;0.000;0.000;2023-03-05T13:25:36;7.20;99.90
56869;DHT22;42754;0.000;0.000;2023-03-05T13:28:02;7.30;99.90
56869;DHT22;42754;0.000;0.000;2023-03-05T13:30:28;7.50;99.90
56869;DHT22;42754;0.000;0.000;2023-03-05T13:32:56;7.30;99.90
56869;DHT22;42754;0.000;0.000;2023-03-05T13:35:23;7.30;99.90
56869;DHT22;42754;0.000;0.000;2023-03-05T13:37:50;7.30;99.90
56869;DHT22;42754;0.000;0.000;2023-03-05T13:40:20;7.30;99.90
56869;DHT22;42754;0.000;0.000;2023-03-05T13:42:47;7.20;99.90
56869;DHT22;42754;0.000;0.000;2023-03-05T13:45:20;7.30;99.90
56869;DHT22;42754;0.000;0.000;2023-03-05T13:48:03;7.30;99.90
56869;DHT22;42754;0.000;0.000;2023-03-05T13:50:32;7.30;99.90
56869;DHT22;42754;0.000;0.000;2023-03-05T13:53:15;7.30;99.90
56869;DHT22;42754;0.000;0.000;2023-03-05T13:55:42;7.30;99.90
56869;DHT22;42754;0.000;0.000;2023-03-05T13:58:53;7.30;99.90
56869;DHT22;42754;0.000;0.000;2023-03-05T14:01:04;7.30;99.90
56869;DHT22;42754;0.000;0.000;2023-03-05T14:03:30;7.30;99.90
56869;DHT22;42754;0.000;0.000;2023-03-05T14:05:57;7.30;99.90
56869;DHT22;42754;0.000;0.000;2023-03-05T14:08:24;7.30;99.90
56869;DHT22;42754;0.000;0.000;2023-03-05T14:10:53;7.40;99.90
56869;DHT22;42754;0.000;0.000;2023-03-05T14:13:22;7.50;99.90
56869;DHT22;42754;0.000;0.000;2023-03-05T14:18:33;7.70;99.90
56869;DHT22;42754;0.000;0.000;2023-03-05T14:23:51;7.80;99.90
56869;DHT22;42754;0.000;0.000;2023-03-05T14:26:26;7.60;99.90
56869;DHT22;42754;0.000;0.000;2023-03-05T14:28:56;7.60;99.90
56869;DHT22;42754;0.000;0.000;2023-03-05T14:31:23;7.50;99.90
56869;DHT22;42754;0.000;0.000;2023-03-05T14:33:49;7.50;99.90
56869;DHT22;42754;0.000;0.000;2023-03-05T14:36:19;7.50;99.90
56869;DHT22;42754;0.000;0.000;2023-03-05T14:38:46;7.50;99.90
56869;DHT22;42754;0.000;0.000;2023-03-05T14:41:19;7.40;99.90
56869;DHT22;42754;0.000;0.000;2023-03-05T14:43:45;7.50;99.90
56869;DHT22;42754;0.000;0.000;2023-03-05T14:46:10;7.40;99.90
56869;DHT22;42754;0.000;0.000;2023-03-05T14:48:36;7.30;99.90
56869;DHT22;42754;0.000;0.000;2023-03-05T14:51:01;7.20;99.90
56869;DHT22;42754;0.000;0.000;2023-03-05T14:53:28;7.30;99.90
56869;DHT22;42754;0.000;0.000;2023-03-05T14:55:55;7.30;99.90
56869;DHT22;42754;0.000;0.000;2023-03-05T14:58:22;7.30;99.90
56869;DHT22;42754;0.000;0.000;2023-03-05T15:00:53;7.20;99.90
56869;DHT22;42754;0.000;0.000;2023-03-05T15:03:22;7.20;99.90
56869;DHT22;42754;0.000;0.000;2023-03-05T15:05:48;7.10;99.90
56869;DHT22;42754;0.000;0.000;2023-03-05T15:08:21;7.10;99.90
56869;DHT22;42754;0.000;0.000;2023-03-05T15:10:51;7.10;99.90
56869;DHT22;42754;0.000;0.000;2023-03-05T15:13:16;7.10;99.90
56869;DHT22;42754;0.000;0.000;2023-03-05T15:15:42;7.10;99.90
56869;DHT22;42754;0.000;0.000;2023-03-05T15:18:09;7.20;99.90
56869;DHT22;42754;0.000;0.000;2023-03-05T15:20:36;7.30;99.90
56869;DHT22;42754;0.000;0.000;2023-03-05T15:23:04;7.30;99.90
56869;DHT22;42754;0.000;0.000;2023-03-05T15:25:30;7.30;99.90
56869;DHT22;42754;0.000;0.000;2023-03-05T15:27:56;7.20;99.90
56869;DHT22;42754;0.000;0.000;2023-03-05T15:30:29;7.20;99.90
56869;DHT22;42754;0.000;0.000;2023-03-05T15:32:55;7.10;99.90
56869;DHT22;42754;0.000;0.000;2023-03-05T15:35:22;7.10;99.90
56869;DHT22;42754;0.000;0.000;2023-03-05T15:37:48;7.10;99.90
56869;DHT22;42754;0.000;0.000;2023-03-05T15:40:13;7.00;99.90
56869;DHT22;42754;0.000;0.000;2023-03-05T15:42:39;7.00;99.90
56869;DHT22;42754;0.000;0.000;2023-03-05T15:45:05;7.00;99.90
56869;DHT22;42754;0.000;0.000;2023-03-05T15:47:30;7.00;99.90
56869;DHT22;42754;0.000;0.000;2023-03-05T15:49:57;7.00;99.90
56869;DHT22;42754;0.000;0.000;2023-03-05T15:52:23;6.90;99.90
56869;DHT22;42754;0.000;0.000;2023-03-05T15:54:48;6.90;99.90
56869;DHT22;42754;0.000;0.000;2023-03-05T15:57:14;6.80;99.90
56869;DHT22;42754;0.000;0.000;2023-03-05T15:59:39;6.80;99.90
56869;DHT22;42754;0.000;0.000;2023-03-05T16:02:05;6.90;99.90
56869;DHT22;42754;0.000;0.000;2023-03-05T16:04:31;6.90;99.90
56869;DHT22;42754;0.000;0.000;2023-03-05T16:09:29;6.80;99.90
56869;DHT22;42754;0.000;0.000;2023-03-05T16:11:55;6.80;99.90
56869;DHT22;42754;0.000;0.000;2023-03-05T16:14:21;6.80;99.90
56869;DHT22;42754;0.000;0.000;2023-03-05T16:16:49;6.70;99.90
56869;DHT22;42754;0.000;0.000;2023-03-05T16:19:16;6.70;99.90
56869;DHT22;42754;0.000;0.000;2023-03-05T16:21:44;6.70;99.90
56869;DHT22;42754;0.000;0.000;2023-03-05T16:24:10;6.60;99.90
56869;DHT22;42754;0.000;0.000;2023-03-05T16:26:36;6.70;99.90
56869;DHT22;42754;0.000;0.000;2023-03-05T16:29:02;6.70;99.90
56869;DHT22;42754;0.000;0.000;2023-03-05T16:31:28;6.70;99.90
56869;DHT22;42754;0.000;0.000;2023-03-05T16:33:54;6.60;99.90
56869;DHT22;42754;0.000;0.000;2023-03-05T16:36:21;6.60;99.90
56869;DHT22;42754;0.000;0.000;2023-03-05T16:38:47;6.60;99.90
56869;DHT22;42754;0.000;0.000;2023-03-05T16:41:19;6.60;99.90
56869;DHT22;42754;0.000;0.000;2023-03-05T16:43:45;6.60;99.90
56869;DHT22;42754;0.000;0.000;2023-03-05T16:46:11;6.60;99.90
56869;DHT22;42754;0.000;0.000;2023-03-05T16:48:37;6.50;99.90
56869;DHT22;42754;0.000;0.000;2023-03-05T16:51:04;6.50;99.90
56869;DHT22;42754;0.000;0.000;2023-03-05T16:53:29;6.50;99.90
56869;DHT22;42754;0.000;0.000;2023-03-05T16:55:56;6.40;99.90
56869;DHT22;42754;0.000;0.000;2023-03-05T16:58:22;6.40;99.90
56869;DHT22;42754;0.000;0.000;2023-03-05T17:00:47;6.40;99.90
56869;DHT22;42754;0.000;0.000;2023-03-05T17:03:13;6.30;99.90
56869;DHT22;42754;0.000;0.000;2023-03-05T17:05:39;6.30;99.90
56869;DHT22;42754;0.000;0.000;2023-03-05T17:08:04;6.30;99.90
56869;DHT22;42754;0.000;0.000;2023-03-05T17:10:30;6.20;99.90
56869;DHT22;42754;0.000;0.000;2023-03-05T17:13:08;6.20;99.90
56869;DHT22;42754;0.000;0.000;2023-03-05T17:15:34;6.20;99.90
56869;DHT22;42754;0.000;0.000;2023-03-05T17:18:00;6.10;99.90
56869;DHT22;42754;0.000;0.000;2023-03-05T17:20:26;6.20;99.90
56869;DHT22;42754;0.000;0.000;2023-03-05T17:22:52;6.10;99.90
56869;DHT22;42754;0.000;0.000;2023-03-05T17:25:17;6.10;99.90
56869;DHT22;42754;0.000;0.000;2023-03-05T17:27:43;6.10;99.90
56869;DHT22;42754;0.000;0.000;2023-03-05T17:30:08;6.00;99.90
56869;DHT22;42754;0.000;0.000;2023-03-05T17:32:41;5.90;99.90
56869;DHT22;42754;0.000;0.000;2023-03-05T17:35:16;5.90;99.90
56869;DHT22;42754;0.000;0.000;2023-03-05T17:37:42;6.00;99.90
56869;DHT22;42754;0.000;0.000;2023-03-05T17:40:15;6.00;99.90